Time;durP1;ratioP1;P1;durP2;ratioP2;P2;SDS_P1;SDS_P2;PMS_P1;PMS_P2;Temp;Humidity;BMP_temperature;BMP_pressure;BME280_temperature;BME280_humidity;BME280_pressure;Samples;Min_cycle;Max_cycle;Signal;HPM_P1;HPM_P2
2024/01/07 00:00:46;;;;;;;5.60;2.10;;;-2.30;99.90;;;;;;5013419;28;20224;-81
2024/01/07 00:03:13;;;;;;;3.53;1.90;;;-2.30;99.90;;;;;;4986741;28;20311;-82
2024/01/07 00:05:39;;;;;;;3.30;1.83;;;-2.30;99.90;;;;;;4996559;28;20252;-81
2024/01/07 00:08:07;;;;;;;2.60;1.80;;;-2.40;99.90;;;;;;4996326;28;20663;-81
2024/01/07 00:10:33;;;;;;;5.10;1.90;;;-2.40;99.90;;;;;;4992906;28;20253;-82
2024/01/07 00:13:00;;;;;;;2.30;1.60;;;-2.40;99.90;;;;;;4994319;28;20276;-81
2024/01/07 00:15:27;;;;;;;4.13;1.70;;;-2.50;99.90;;;;;;5012063;28;20237;-81
2024/01/07 00:17:55;;;;;;;2.93;1.63;;;-2.50;99.90;;;;;;4990574;28;20231;-82
2024/01/07 00:20:22;;;;;;;3.17;1.60;;;-2.50;99.90;;;;;;4990983;28;20256;-82
2024/01/07 00:22:48;;;;;;;4.20;1.70;;;-2.50;99.90;;;;;;5007547;28;20252;-82
2024/01/07 00:25:15;;;;;;;2.77;1.77;;;-2.50;99.90;;;;;;4981985;28;20255;-81
2024/01/07 00:27:42;;;;;;;4.47;1.83;;;-2.50;99.90;;;;;;5011107;28;20264;-82
2024/01/07 00:30:09;;;;;;;4.23;2.10;;;-2.50;99.90;;;;;;4995934;28;20248;-81
2024/01/07 00:32:36;;;;;;;4.70;1.97;;;-2.50;99.90;;;;;;4979472;28;20521;-81
2024/01/07 00:35:05;;;;;;;3.23;1.50;;;-2.40;99.90;;;;;;4997438;28;20300;-82
2024/01/07 00:37:33;;;;;;;2.83;1.90;;;-2.50;99.90;;;;;;4984821;28;20288;-82
2024/01/07 00:40:00;;;;;;;4.80;2.00;;;-2.50;99.90;;;;;;4993483;28;20768;-82
2024/01/07 00:42:27;;;;;;;2.83;2.00;;;-2.40;99.90;;;;;;5000346;28;20312;-81
2024/01/07 00:44:53;;;;;;;2.77;1.83;;;-2.40;99.90;;;;;;5015348;28;20737;-82
2024/01/07 00:47:20;;;;;;;3.83;2.00;;;-2.50;99.90;;;;;;4996724;28;20232;-82
2024/01/07 00:49:47;;;;;;;3.20;1.80;;;-2.50;99.90;;;;;;5003693;28;20301;-82
2024/01/07 00:52:15;;;;;;;4.50;1.70;;;-2.50;99.90;;;;;;5011776;28;20638;-81
2024/01/07 00:54:42;;;;;;;2.97;1.77;;;-2.50;99.90;;;;;;5012471;28;20227;-81
2024/01/07 00:57:08;;;;;;;4.77;1.60;;;-2.50;99.90;;;;;;4999061;28;20324;-82
2024/01/07 00:59:35;;;;;;;3.03;2.00;;;-2.50;99.90;;;;;;4999714;28;20661;-82
2024/01/07 01:02:02;;;;;;;2.33;1.70;;;-2.50;99.90;;;;;;5009864;28;20236;-82
2024/01/07 01:04:29;;;;;;;3.37;1.60;;;-2.50;99.90;;;;;;4987990;28;20886;-81
2024/01/07 01:06:56;;;;;;;2.47;1.43;;;-2.50;99.90;;;;;;5006051;28;20328;-82
2024/01/07 01:09:24;;;;;;;3.80;1.97;;;-2.60;99.90;;;;;;4995773;28;20327;-82
2024/01/07 01:11:51;;;;;;;2.70;1.70;;;-2.60;99.90;;;;;;5014087;28;20955;-82
2024/01/07 01:14:17;;;;;;;3.40;1.93;;;-2.60;99.90;;;;;;5017708;28;20222;-82
2024/01/07 01:16:44;;;;;;;3.90;1.80;;;-2.60;99.90;;;;;;4985848;28;20252;-82
2024/01/07 01:19:12;;;;;;;2.30;1.50;;;-2.60;99.90;;;;;;4999453;28;20227;-82
2024/01/07 01:21:39;;;;;;;1.90;1.40;;;-2.70;99.90;;;;;;5006811;28;20721;-82
2024/01/07 01:24:06;;;;;;;2.40;1.60;;;-2.70;99.90;;;;;;5015083;28;20878;-82
2024/01/07 01:26:35;;;;;;;3.67;1.70;;;-2.70;99.90;;;;;;4995318;28;20224;-82
2024/01/07 01:29:02;;;;;;;4.67;1.80;;;-2.70;99.90;;;;;;5017484;28;20260;-82
2024/01/07 01:31:29;;;;;;;3.73;1.67;;;-2.80;99.90;;;;;;4981740;28;20751;-81
2024/01/07 01:33:56;;;;;;;1.90;1.60;;;-2.80;99.90;;;;;;5020832;28;20320;-82
2024/01/07 01:36:23;;;;;;;2.93;1.47;;;-2.80;99.90;;;;;;5003096;28;20944;-81
2024/01/07 01:38:50;;;;;;;2.77;1.77;;;-2.80;99.90;;;;;;5006883;28;20220;-81
2024/01/07 01:41:17;;;;;;;5.10;2.03;;;-2.80;99.90;;;;;;4991881;28;20315;-81
2024/01/07 01:43:46;;;;;;;4.50;2.20;;;-2.80;99.90;;;;;;4990607;28;20239;-81
2024/01/07 01:46:14;;;;;;;3.10;2.07;;;-2.70;99.90;;;;;;4991330;28;20242;-81
2024/01/07 01:48:42;;;;;;;5.13;2.20;;;-2.70;99.90;;;;;;5010105;28;20249;-82
2024/01/07 01:51:09;;;;;;;4.73;2.03;;;-2.70;99.90;;;;;;4991200;28;20248;-82
2024/01/07 01:53:37;;;;;;;4.33;2.40;;;-2.70;99.90;;;;;;4983138;28;20243;-82
2024/01/07 01:56:05;;;;;;;3.23;1.90;;;-2.70;99.90;;;;;;4980068;28;20229;-82
2024/01/07 01:58:33;;;;;;;3.73;2.07;;;-2.70;99.90;;;;;;4987773;28;20252;-82
2024/01/07 02:01:02;;;;;;;4.10;2.17;;;-2.70;99.90;;;;;;4988653;28;20271;-82
2024/01/07 02:03:28;;;;;;;3.43;2.03;;;-2.60;99.90;;;;;;4991267;28;20230;-82
2024/01/07 02:05:57;;;;;;;3.00;1.83;;;-2.60;99.90;;;;;;4997884;28;20311;-82
2024/01/07 02:08:24;;;;;;;2.73;1.60;;;-2.50;99.90;;;;;;4998611;28;20224;-82
2024/01/07 02:10:51;;;;;;;2.70;1.67;;;-2.50;99.90;;;;;;4987221;28;20256;-82
2024/01/07 02:13:17;;;;;;;3.73;1.70;;;-2.50;99.90;;;;;;4985232;28;20271;-82
2024/01/07 02:15:44;;;;;;;3.43;1.80;;;-2.40;99.90;;;;;;4991659;28;20251;-81
2024/01/07 02:18:13;;;;;;;3.03;1.60;;;-2.40;99.90;;;;;;5000591;28;20693;-82
2024/01/07 02:20:39;;;;;;;2.90;1.50;;;-2.40;99.90;;;;;;4991529;28;20941;-82
2024/01/07 02:23:06;;;;;;;5.43;1.83;;;-2.30;99.90;;;;;;5023294;28;20858;-82
2024/01/07 02:25:37;;;;;;;3.47;2.13;;;-2.30;99.90;;;;;;4986430;28;20287;-83
2024/01/07 02:28:04;;;;;;;3.03;1.60;;;-2.30;99.90;;;;;;5003201;28;20904;-82
2024/01/07 02:30:31;;;;;;;2.47;1.50;;;-2.20;99.90;;;;;;4977121;28;20257;-82
2024/01/07 02:33:02;;;;;;;2.30;1.57;;;-2.20;99.90;;;;;;4972583;28;20230;-83
2024/01/07 02:35:29;;;;;;;3.90;1.60;;;-2.20;99.90;;;;;;4977961;28;20231;-82
2024/01/07 02:37:56;;;;;;;4.37;1.43;;;-2.10;99.90;;;;;;4979523;28;20476;-82
2024/01/07 02:40:22;;;;;;;3.10;1.60;;;-2.10;99.90;;;;;;4985948;28;20233;-82
2024/01/07 02:42:51;;;;;;;4.13;1.50;;;-2.10;99.90;;;;;;4981477;28;20809;-82
2024/01/07 02:45:17;;;;;;;3.37;2.00;;;-2.00;99.90;;;;;;4983867;28;20232;-82
2024/01/07 02:47:44;;;;;;;2.10;1.40;;;-2.00;99.90;;;;;;4989001;28;20255;-83
2024/01/07 02:50:11;;;;;;;2.93;1.40;;;-2.00;99.90;;;;;;4986924;28;20339;-83
2024/01/07 02:52:37;;;;;;;2.57;1.50;;;-1.90;99.90;;;;;;4985748;28;20255;-81
2024/01/07 02:55:05;;;;;;;4.93;1.70;;;-1.90;99.90;;;;;;4983858;28;20323;-81
2024/01/07 02:57:31;;;;;;;4.03;1.40;;;-1.90;99.90;;;;;;4985362;28;20304;-80
2024/01/07 03:00:00;;;;;;;4.37;1.50;;;-1.90;99.90;;;;;;5002437;28;20236;-81
2024/01/07 03:02:27;;;;;;;2.17;1.40;;;-1.90;99.90;;;;;;5008558;28;20237;-81
2024/01/07 03:04:54;;;;;;;1.87;1.50;;;-1.80;99.90;;;;;;5004435;28;20227;-81
2024/01/07 03:07:21;;;;;;;2.63;1.77;;;-1.80;99.90;;;;;;4990609;28;20640;-81
2024/01/07 03:09:49;;;;;;;5.10;1.60;;;-1.80;99.90;;;;;;5011327;28;20254;-80
2024/01/07 03:12:16;;;;;;;2.80;1.80;;;-1.80;99.90;;;;;;5009140;28;20236;-80
2024/01/07 03:14:43;;;;;;;3.97;1.50;;;-1.80;99.90;;;;;;4991691;28;20692;-80
2024/01/07 03:17:12;;;;;;;3.70;1.27;;;-1.80;99.90;;;;;;4991100;28;20228;-80
2024/01/07 03:19:39;;;;;;;2.70;1.33;;;-1.80;99.90;;;;;;4978135;28;20819;-81
2024/01/07 03:22:07;;;;;;;4.07;1.80;;;-1.80;99.90;;;;;;4985393;28;20232;-80
2024/01/07 03:24:33;;;;;;;4.03;1.80;;;-1.80;99.90;;;;;;4990139;28;20336;-80
2024/01/07 03:27:15;;;;;;;2.20;1.40;;;-1.80;99.90;;;;;;5105799;27;20562;-81
2024/01/07 03:29:42;;;;;;;2.80;1.43;;;-1.70;99.90;;;;;;5086920;27;20321;-81
2024/01/07 03:32:09;;;;;;;2.93;1.80;;;-1.80;99.90;;;;;;5093271;28;20821;-81
2024/01/07 03:34:35;;;;;;;5.00;1.70;;;-1.70;99.90;;;;;;5103359;27;20220;-82
2024/01/07 03:37:02;;;;;;;2.57;1.40;;;-1.70;99.90;;;;;;5116458;27;20283;-82
2024/01/07 03:39:29;;;;;;;2.90;1.70;;;-1.70;99.90;;;;;;5106709;27;20707;-81
2024/01/07 03:41:56;;;;;;;2.03;1.40;;;-1.70;99.90;;;;;;5112079;27;20218;-82
2024/01/07 03:44:24;;;;;;;3.93;1.50;;;-1.70;99.90;;;;;;5082524;28;20221;-82
2024/01/07 03:46:51;;;;;;;2.83;1.60;;;-1.60;99.90;;;;;;5096001;28;20476;-83
2024/01/07 03:49:18;;;;;;;3.53;1.50;;;-1.60;99.90;;;;;;5098758;27;20224;-83
2024/01/07 03:51:45;;;;;;;2.57;1.63;;;-1.60;99.90;;;;;;5097690;27;20681;-83
2024/01/07 03:54:12;;;;;;;2.07;1.50;;;-1.60;99.90;;;;;;5095706;27;20220;-82
2024/01/07 03:56:38;;;;;;;3.00;1.60;;;-1.50;99.90;;;;;;5088965;27;20737;-83
2024/01/07 03:59:05;;;;;;;3.17;1.30;;;-1.50;99.90;;;;;;5087037;27;20312;-82
2024/01/07 04:01:33;;;;;;;1.90;1.30;;;-1.50;99.90;;;;;;5105179;28;20224;-83
2024/01/07 04:04:00;;;;;;;2.03;1.30;;;-1.50;99.90;;;;;;5105618;27;20646;-84
2024/01/07 04:06:27;;;;;;;3.77;1.70;;;-1.50;99.90;;;;;;5112123;27;20245;-83
2024/01/07 04:08:54;;;;;;;3.27;1.47;;;-1.50;99.90;;;;;;5113263;27;20225;-83
2024/01/07 04:11:20;;;;;;;2.80;1.43;;;-1.50;99.90;;;;;;5111434;27;20638;-83
2024/01/07 04:13:47;;;;;;;2.47;1.40;;;-1.50;99.90;;;;;;5124554;27;20226;-83
2024/01/07 04:16:18;;;;;;;2.07;1.40;;;-1.50;99.90;;;;;;5116035;27;20217;-82
2024/01/07 04:18:46;;;;;;;2.40;1.50;;;-1.50;99.90;;;;;;5117953;27;20708;-83
2024/01/07 04:21:13;;;;;;;2.03;1.23;;;-1.50;99.90;;;;;;5119646;27;20232;-83
2024/01/07 04:23:41;;;;;;;4.07;1.60;;;-1.50;99.90;;;;;;5106272;27;20225;-84
2024/01/07 04:26:08;;;;;;;1.93;1.27;;;-1.40;99.90;;;;;;5113458;27;20240;-83
2024/01/07 04:28:34;;;;;;;3.50;1.27;;;-1.50;99.90;;;;;;5112786;27;20707;-83
2024/01/07 04:31:01;;;;;;;2.43;1.70;;;-1.40;99.90;;;;;;5087636;28;20245;-83
2024/01/07 04:33:28;;;;;;;2.07;1.30;;;-1.40;99.90;;;;;;5090167;28;20304;-84
2024/01/07 04:35:58;;;;;;;2.80;1.30;;;-1.40;99.90;;;;;;5093681;27;20890;-82
2024/01/07 04:38:25;;;;;;;3.73;1.70;;;-1.30;99.90;;;;;;5101236;27;20224;-82
2024/01/07 04:40:52;;;;;;;2.33;1.37;;;-1.30;99.90;;;;;;5088896;27;20241;-82
2024/01/07 04:43:19;;;;;;;3.73;1.50;;;-1.30;99.90;;;;;;5082326;28;20215;-82
2024/01/07 04:45:46;;;;;;;2.83;1.27;;;-1.20;99.90;;;;;;5073663;28;20245;-82
2024/01/07 04:48:13;;;;;;;2.73;1.13;;;-1.20;99.90;;;;;;5077764;28;20819;-82
2024/01/07 04:50:41;;;;;;;2.57;1.23;;;-1.20;99.90;;;;;;5085076;28;20319;-82
2024/01/07 04:53:10;;;;;;;2.03;1.10;;;-1.20;99.90;;;;;;5082358;28;20288;-83
2024/01/07 04:55:37;;;;;;;1.53;1.23;;;-1.20;99.90;;;;;;5087591;28;20216;-81
2024/01/07 04:58:04;;;;;;;1.73;1.20;;;-1.10;99.90;;;;;;5081739;28;20316;-83
2024/01/07 05:00:31;;;;;;;3.47;1.20;;;-1.10;99.90;;;;;;5084393;28;20219;-84
2024/01/07 05:02:58;;;;;;;3.53;1.33;;;-1.10;99.90;;;;;;5087845;27;20234;-84
2024/01/07 05:05:24;;;;;;;1.87;1.17;;;-1.10;99.90;;;;;;5089755;28;20228;-83
2024/01/07 05:07:51;;;;;;;3.03;1.20;;;-1.10;99.90;;;;;;5072198;28;20490;-82
2024/01/07 05:10:19;;;;;;;1.20;1.10;;;-1.00;99.90;;;;;;5082116;28;20222;-82
2024/01/07 05:12:46;;;;;;;1.70;1.10;;;-1.00;99.90;;;;;;5083547;28;20304;-83
2024/01/07 05:15:13;;;;;;;3.07;1.10;;;-1.00;99.90;;;;;;5072186;28;20245;-82
2024/01/07 05:17:39;;;;;;;3.20;1.10;;;-1.00;99.90;;;;;;5082666;28;20346;-82
2024/01/07 05:20:08;;;;;;;2.70;1.30;;;-1.00;99.90;;;;;;5097763;28;20256;-82
2024/01/07 05:22:35;;;;;;;1.50;1.10;;;-0.90;99.90;;;;;;5086939;28;20217;-82
2024/01/07 05:25:02;;;;;;;1.77;1.07;;;-0.90;99.90;;;;;;5077209;28;20627;-83
2024/01/07 05:27:30;;;;;;;1.53;1.00;;;-0.90;99.90;;;;;;5077392;28;20224;-83
2024/01/07 05:29:56;;;;;;;2.87;1.10;;;-0.90;99.90;;;;;;5076870;28;20288;-83
2024/01/07 05:32:23;;;;;;;2.67;1.10;;;-0.90;99.90;;;;;;5079215;28;20225;-82
2024/01/07 05:34:50;;;;;;;2.60;1.00;;;-0.90;99.90;;;;;;5078667;28;20289;-82
2024/01/07 05:37:17;;;;;;;2.80;1.00;;;-0.80;99.90;;;;;;5078872;28;20276;-83
2024/01/07 05:39:43;;;;;;;2.30;1.10;;;-0.80;99.90;;;;;;5079851;28;20261;-82
2024/01/07 05:42:10;;;;;;;2.90;1.20;;;-0.80;99.90;;;;;;5112126;27;20222;-82
2024/01/07 05:44:40;;;;;;;2.07;1.10;;;-0.80;99.90;;;;;;5082908;28;20317;-82
2024/01/07 05:47:07;;;;;;;4.17;1.80;;;-0.80;99.90;;;;;;5083607;28;20221;-82
2024/01/07 05:49:34;;;;;;;2.47;1.00;;;-0.80;99.90;;;;;;5081858;28;20980;-83
2024/01/07 05:52:00;;;;;;;1.40;1.00;;;-0.80;99.90;;;;;;5081535;28;20260;-82
2024/01/07 05:54:27;;;;;;;1.87;0.97;;;-0.80;99.90;;;;;;5075762;27;20254;-82
2024/01/07 05:56:54;;;;;;;1.60;1.07;;;-0.90;99.90;;;;;;5080356;27;20230;-81
2024/01/07 05:59:20;;;;;;;2.63;1.20;;;-0.80;99.90;;;;;;5096344;28;20227;-81
2024/01/07 06:01:48;;;;;;;2.30;0.90;;;-0.90;99.90;;;;;;5079885;28;20324;-80
2024/01/07 06:04:15;;;;;;;2.67;1.20;;;-0.90;99.90;;;;;;5084834;28;20637;-81
2024/01/07 06:06:42;;;;;;;1.40;1.00;;;-0.90;99.90;;;;;;5082266;28;20330;-80
2024/01/07 06:09:08;;;;;;;2.30;0.80;;;-0.90;99.90;;;;;;5090208;27;20235;-81
2024/01/07 06:11:35;;;;;;;2.50;1.03;;;-0.90;99.90;;;;;;5082067;28;20226;-81
2024/01/07 06:14:02;;;;;;;2.37;1.03;;;-0.90;99.90;;;;;;5107954;28;20255;-83
2024/01/07 06:16:29;;;;;;;2.17;1.27;;;-0.90;99.90;;;;;;5087253;28;20225;-83
2024/01/07 06:18:57;;;;;;;2.37;1.00;;;-0.90;99.90;;;;;;5072569;28;20215;-83
2024/01/07 06:21:24;;;;;;;2.27;1.00;;;-0.90;99.90;;;;;;5087491;28;20219;-86
2024/01/07 06:23:51;;;;;;;1.07;0.90;;;-0.90;99.90;;;;;;5080835;28;20308;-83
2024/01/07 06:26:18;;;;;;;1.23;0.90;;;-0.90;99.90;;;;;;5077751;28;20233;-83
2024/01/07 06:28:45;;;;;;;3.00;1.00;;;-0.90;99.90;;;;;;5088771;28;20222;-84
2024/01/07 06:31:12;;;;;;;1.70;1.03;;;-0.90;99.90;;;;;;5078812;28;20239;-83
2024/01/07 06:33:39;;;;;;;1.40;1.13;;;-0.80;99.90;;;;;;5077679;28;20784;-84
2024/01/07 06:36:08;;;;;;;3.03;1.10;;;-0.90;99.90;;;;;;5076376;28;20352;-84
2024/01/07 06:38:35;;;;;;;1.70;1.10;;;-0.90;99.90;;;;;;5081220;27;20225;-84
2024/01/07 06:41:04;;;;;;;2.60;1.63;;;-0.90;99.90;;;;;;5086804;28;20865;-82
2024/01/07 06:43:32;;;;;;;5.13;2.13;;;-0.90;99.90;;;;;;5081969;28;20235;-83
2024/01/07 06:45:59;;;;;;;2.47;1.53;;;-0.90;99.90;;;;;;5074509;28;20223;-84
2024/01/07 06:48:25;;;;;;;1.63;1.00;;;-0.90;99.90;;;;;;5078439;28;20214;-83
2024/01/07 06:50:52;;;;;;;1.87;1.20;;;-1.00;99.90;;;;;;5081869;28;20808;-84
2024/01/07 06:53:21;;;;;;;2.50;1.30;;;-1.00;99.90;;;;;;5081980;28;20227;-83
2024/01/07 06:55:47;;;;;;;2.90;1.20;;;-1.00;99.90;;;;;;5086880;28;20223;-83
2024/01/07 06:58:14;;;;;;;2.80;1.30;;;-1.00;99.90;;;;;;5067394;28;20227;-80
2024/01/07 07:00:41;;;;;;;3.17;1.43;;;-1.00;99.90;;;;;;5074976;28;20222;-80
2024/01/07 07:03:10;;;;;;;3.30;1.63;;;-1.00;99.90;;;;;;5046652;28;20235;-81
2024/01/07 07:05:37;;;;;;;2.30;1.30;;;-1.00;99.90;;;;;;5081399;28;20224;-81
2024/01/07 07:08:04;;;;;;;10.63;6.23;;;-1.00;99.90;;;;;;5084131;28;20312;-81
2024/01/07 07:10:32;;;;;;;2.73;1.77;;;-1.00;99.90;;;;;;5099576;28;20482;-82
2024/01/07 07:12:59;;;;;;;6.87;2.60;;;-1.00;99.90;;;;;;5088127;27;20226;-81
2024/01/07 07:15:28;;;;;;;5.77;2.40;;;-1.00;99.90;;;;;;5096790;28;20281;-81
2024/01/07 07:17:55;;;;;;;5.13;2.43;;;-1.00;99.90;;;;;;5104339;27;20315;-81
2024/01/07 07:20:21;;;;;;;4.23;2.77;;;-1.00;99.90;;;;;;5090801;28;20524;-81
2024/01/07 07:22:48;;;;;;;4.10;2.33;;;-1.00;99.90;;;;;;5084292;28;20219;-81
2024/01/07 07:25:15;;;;;;;4.20;2.43;;;-1.00;99.90;;;;;;5073253;28;20313;-82
2024/01/07 07:27:43;;;;;;;4.90;2.90;;;-1.00;99.90;;;;;;5071736;28;20233;-81
2024/01/07 07:30:10;;;;;;;3.20;2.43;;;-1.00;99.90;;;;;;5106751;27;20225;-81
2024/01/07 07:32:40;;;;;;;4.30;2.90;;;-1.00;99.90;;;;;;5074022;28;20905;-82
2024/01/07 07:35:08;;;;;;;5.47;2.63;;;-1.00;99.90;;;;;;5078105;27;20227;-81
2024/01/07 07:37:34;;;;;;;5.63;3.87;;;-1.00;99.90;;;;;;5089366;27;20700;-81
2024/01/07 07:40:01;;;;;;;8.30;4.37;;;-1.00;99.90;;;;;;5081255;27;20253;-80
2024/01/07 07:42:28;;;;;;;7.90;3.13;;;-1.00;99.90;;;;;;5077103;27;20727;-81
2024/01/07 07:44:56;;;;;;;4.33;3.40;;;-1.00;99.90;;;;;;5080339;27;20318;-81
2024/01/07 07:47:23;;;;;;;5.73;2.97;;;-1.00;99.90;;;;;;5097399;28;20273;-83
2024/01/07 07:49:50;;;;;;;5.90;4.00;;;-1.00;99.90;;;;;;5084217;28;20711;-83
2024/01/07 07:52:21;;;;;;;135.27;10.90;;;-1.00;99.90;;;;;;5110815;28;20752;-80
2024/01/07 07:54:48;;;;;;;4.77;3.47;;;-1.10;99.90;;;;;;5085100;28;20226;-83
2024/01/07 07:57:15;;;;;;;9.00;3.10;;;-1.00;99.90;;;;;;5075960;28;20310;-83
2024/01/07 07:59:41;;;;;;;6.67;3.20;;;-1.10;99.90;;;;;;5106884;27;20262;-84
2024/01/07 08:02:10;;;;;;;7.33;3.20;;;-1.10;99.90;;;;;;5071892;28;21046;-83
2024/01/07 08:04:37;;;;;;;6.83;3.50;;;-1.10;99.90;;;;;;5089486;28;20307;-83
2024/01/07 08:07:03;;;;;;;4.07;2.80;;;-1.10;99.90;;;;;;5078888;27;20222;-82
2024/01/07 08:09:30;;;;;;;5.37;3.03;;;-1.10;99.90;;;;;;5080027;28;20316;-83
2024/01/07 08:11:57;;;;;;;5.03;2.90;;;-1.10;99.90;;;;;;5061117;27;20306;-83
2024/01/07 08:14:23;;;;;;;7.10;3.57;;;-1.10;99.90;;;;;;5084000;27;20236;-81
2024/01/07 08:16:50;;;;;;;6.87;3.10;;;-1.10;99.90;;;;;;5079762;27;20664;-83
2024/01/07 08:19:18;;;;;;;4.53;2.80;;;-1.10;99.90;;;;;;5075493;28;20234;-85
2024/01/07 08:21:45;;;;;;;3.73;2.70;;;-1.20;99.90;;;;;;5088701;27;20223;-84
2024/01/07 08:24:12;;;;;;;6.03;2.87;;;-1.20;99.90;;;;;;5079339;28;20223;-83
2024/01/07 08:26:39;;;;;;;5.67;3.43;;;-1.20;99.90;;;;;;5107647;27;20819;-83
2024/01/07 08:29:06;;;;;;;4.77;2.83;;;-1.20;99.90;;;;;;5069661;27;20243;-83
2024/01/07 08:31:33;;;;;;;5.57;2.80;;;-1.30;99.90;;;;;;5063900;28;20237;-84
2024/01/07 08:34:00;;;;;;;4.53;2.70;;;-1.30;99.90;;;;;;5077119;28;20233;-83
2024/01/07 08:36:29;;;;;;;6.13;2.70;;;-1.30;99.90;;;;;;5083106;28;20232;-82
2024/01/07 08:38:56;;;;;;;5.10;2.47;;;-1.30;99.90;;;;;;5103158;27;20246;-82
2024/01/07 08:41:22;;;;;;;10.07;2.80;;;-1.30;99.90;;;;;;5083696;27;20320;-81
2024/01/07 08:43:49;;;;;;;4.80;2.60;;;-1.40;99.90;;;;;;5140990;27;20696;-82
2024/01/07 08:46:16;;;;;;;4.17;2.67;;;-1.30;99.90;;;;;;5148481;27;20252;-82
2024/01/07 08:48:43;;;;;;;4.83;2.47;;;-1.30;99.90;;;;;;5113685;28;20237;-82
2024/01/07 08:51:09;;;;;;;4.23;2.37;;;-1.30;99.90;;;;;;5091129;28;20268;-82
2024/01/07 08:53:37;;;;;;;4.27;2.27;;;-1.30;99.90;;;;;;5096786;28;20844;-83
2024/01/07 08:56:06;;;;;;;5.77;2.97;;;-1.30;99.90;;;;;;5081245;28;20245;-81
2024/01/07 08:58:33;;;;;;;5.03;2.40;;;-1.30;99.90;;;;;;5078856;28;20287;-90
2024/01/07 09:01:00;;;;;;;3.23;2.10;;;-1.30;99.90;;;;;;5080797;28;21097;-82
2024/01/07 09:03:27;;;;;;;3.50;2.30;;;-1.30;99.90;;;;;;5111652;27;20232;-82
2024/01/07 09:05:53;;;;;;;4.03;2.77;;;-1.30;99.90;;;;;;5077015;28;20888;-81
2024/01/07 09:08:20;;;;;;;3.80;1.90;;;-1.30;99.90;;;;;;5080189;28;20235;-82
2024/01/07 09:10:48;;;;;;;4.97;2.67;;;-1.20;99.90;;;;;;5077504;28;20228;-82
2024/01/07 09:13:15;;;;;;;4.10;2.37;;;-1.30;99.90;;;;;;5113856;27;20227;-83
2024/01/07 09:15:42;;;;;;;3.80;2.70;;;-1.30;99.90;;;;;;5113241;27;20205;-82
2024/01/07 09:18:09;;;;;;;5.07;2.57;;;-1.20;99.90;;;;;;5085751;27;20250;-82
2024/01/07 09:20:35;;;;;;;10.57;6.97;;;-1.20;99.90;;;;;;5075319;28;20229;-82
2024/01/07 09:23:02;;;;;;;60.33;29.37;;;-1.20;99.90;;;;;;5110698;27;20792;-82
2024/01/07 09:25:29;;;;;;;13.83;9.37;;;-1.20;99.90;;;;;;5079881;28;20647;-83
2024/01/07 09:27:57;;;;;;;11.57;5.50;;;-1.20;99.90;;;;;;5073892;28;20226;-82
2024/01/07 09:30:24;;;;;;;16.47;11.43;;;-1.20;99.90;;;;;;5082354;28;20293;-84
2024/01/07 09:32:51;;;;;;;7.87;4.73;;;-1.20;99.90;;;;;;5079754;28;20218;-83
2024/01/07 09:35:17;;;;;;;12.23;5.60;;;-1.20;99.90;;;;;;5079637;28;20264;-82
2024/01/07 09:37:44;;;;;;;13.30;7.30;;;-1.20;99.90;;;;;;5107032;27;20321;-82
2024/01/07 09:40:12;;;;;;;8.00;6.83;;;-1.10;99.90;;;;;;5077119;27;20259;-82
2024/01/07 09:42:39;;;;;;;5.70;4.13;;;-1.10;99.90;;;;;;5084010;28;20232;-82
2024/01/07 09:45:08;;;;;;;5.73;3.67;;;-1.10;99.90;;;;;;5116288;27;20591;-83
2024/01/07 09:47:36;;;;;;;4.77;2.80;;;-1.10;99.90;;;;;;5091605;28;20746;-82
2024/01/07 09:50:03;;;;;;;5.77;3.17;;;-1.10;99.90;;;;;;5080769;28;20278;-83
2024/01/07 09:52:30;;;;;;;5.57;3.33;;;-1.10;99.90;;;;;;5073594;28;20229;-82
2024/01/07 09:55:00;;;;;;;4.43;3.20;;;-1.00;99.90;;;;;;5064338;28;20625;-83
2024/01/07 09:57:27;;;;;;;4.27;3.63;;;-1.00;99.90;;;;;;5080964;28;20755;-83
2024/01/07 09:59:54;;;;;;;4.93;2.80;;;-0.90;99.90;;;;;;5104164;27;20219;-82
2024/01/07 10:02:23;;;;;;;7.23;5.30;;;-0.90;99.90;;;;;;5106454;27;20731;-82
2024/01/07 10:04:50;;;;;;;4.87;3.43;;;-0.90;99.90;;;;;;5076107;28;20218;-83
2024/01/07 10:07:17;;;;;;;4.63;2.70;;;-0.90;99.90;;;;;;5095782;27;20229;-83
2024/01/07 10:09:44;;;;;;;6.17;2.93;;;-0.90;99.90;;;;;;5080514;28;20249;-83
2024/01/07 10:12:12;;;;;;;3.33;3.03;;;-1.00;99.90;;;;;;5080922;28;20213;-83
2024/01/07 10:14:40;;;;;;;5.73;3.90;;;-1.00;99.90;;;;;;5074408;28;20797;-82
2024/01/07 10:17:15;;;;;;;6.07;4.17;;;-1.10;99.90;;;;;;5086003;27;20219;-83
2024/01/07 10:19:44;;;;;;;5.33;2.70;;;-1.20;99.90;;;;;;5080597;27;20237;-84
2024/01/07 10:22:13;;;;;;;4.70;2.57;;;-1.30;99.90;;;;;;5075268;28;20232;-84
2024/01/07 10:24:41;;;;;;;6.03;2.67;;;-1.40;99.90;;;;;;5077693;28;20227;-84
2024/01/07 10:27:10;;;;;;;4.97;2.30;;;-1.40;99.90;;;;;;5057600;28;20222;-83
2024/01/07 10:29:36;;;;;;;4.70;2.10;;;-1.40;99.90;;;;;;5088429;28;20320;-83
2024/01/07 10:32:05;;;;;;;5.13;3.00;;;-1.40;99.90;;;;;;5086745;28;20759;-82
2024/01/07 10:34:32;;;;;;;6.30;2.43;;;-1.30;99.90;;;;;;5069876;28;20283;-81
2024/01/07 10:37:02;;;;;;;4.33;2.37;;;-1.30;99.90;;;;;;5070132;28;20248;-83
2024/01/07 10:39:30;;;;;;;3.50;2.50;;;-1.20;99.90;;;;;;5080877;28;20225;-82
2024/01/07 10:41:58;;;;;;;3.30;2.27;;;-1.00;99.90;;;;;;5076142;28;20280;-82
2024/01/07 10:44:26;;;;;;;4.40;2.40;;;-1.00;99.90;;;;;;5081588;27;20232;-83
2024/01/07 10:46:55;;;;;;;3.83;2.33;;;-1.00;99.90;;;;;;5098279;27;20214;-83
2024/01/07 10:49:23;;;;;;;3.10;2.17;;;-0.90;99.90;;;;;;5075511;28;20234;-83
2024/01/07 10:52:05;;;;;;;3.30;2.20;;;-0.90;99.90;;;;;;5081708;28;20248;-81
2024/01/07 10:54:33;;;;;;;3.00;2.00;;;-0.80;99.90;;;;;;5077109;28;20320;-82
2024/01/07 10:57:05;;;;;;;4.40;2.10;;;-0.80;99.90;;;;;;5075003;28;20752;-82
2024/01/07 10:59:34;;;;;;;5.77;2.33;;;-0.70;99.90;;;;;;5069462;28;20227;-82
2024/01/07 11:02:03;;;;;;;5.37;3.10;;;-0.70;99.90;;;;;;5091961;28;20246;-82
2024/01/07 11:04:34;;;;;;;4.10;2.70;;;-0.70;99.90;;;;;;5079810;28;20217;-82
2024/01/07 11:07:13;;;;;;;6.07;3.50;;;-0.70;99.90;;;;;;5094891;28;20232;-81
2024/01/07 11:09:47;;;;;;;4.33;2.67;;;-0.70;99.90;;;;;;5086713;28;20224;-82
2024/01/07 11:12:14;;;;;;;4.73;2.80;;;-0.70;99.90;;;;;;5098872;27;20281;-81
2024/01/07 11:14:45;;;;;;;3.83;2.70;;;-0.60;99.90;;;;;;5105363;27;20888;-81
2024/01/07 11:17:13;;;;;;;5.70;2.93;;;-0.60;99.90;;;;;;5117150;27;20253;-82
2024/01/07 11:19:50;;;;;;;6.10;3.63;;;-0.60;99.90;;;;;;5098162;28;20304;-81
2024/01/07 11:22:27;;;;;;;4.67;2.90;;;-0.70;99.90;;;;;;5092529;28;20215;-81
2024/01/07 11:24:55;;;;;;;4.17;2.60;;;-0.70;99.90;;;;;;5075831;28;20271;-80
2024/01/07 11:27:23;;;;;;;3.30;2.60;;;-0.70;99.90;;;;;;5072254;28;20235;-80
2024/01/07 11:29:56;;;;;;;3.67;3.17;;;-0.70;99.90;;;;;;5075608;28;20282;-82
2024/01/07 11:32:25;;;;;;;5.60;3.60;;;-0.70;99.90;;;;;;5076878;28;20215;-82
2024/01/07 11:34:53;;;;;;;5.33;2.90;;;-0.80;99.90;;;;;;5069843;28;20228;-82
2024/01/07 11:37:21;;;;;;;4.90;2.80;;;-0.80;99.90;;;;;;5056572;28;20246;-78
2024/01/07 11:39:51;;;;;;;5.73;3.60;;;-0.80;99.90;;;;;;5081478;28;20327;-82
2024/01/07 11:42:18;;;;;;;9.83;3.87;;;-0.90;99.90;;;;;;5076571;27;20314;-81
2024/01/07 11:44:49;;;;;;;4.67;2.93;;;-0.90;99.90;;;;;;5079795;28;20219;-81
2024/01/07 11:47:16;;;;;;;5.10;2.90;;;-0.90;99.90;;;;;;5093718;28;20225;-83
2024/01/07 11:49:43;;;;;;;4.57;3.50;;;-1.00;99.90;;;;;;5088655;28;20324;-82
2024/01/07 11:52:10;;;;;;;7.37;3.50;;;-1.00;99.90;;;;;;5079255;28;20781;-82
2024/01/07 11:54:37;;;;;;;7.90;3.83;;;-1.00;99.90;;;;;;5075502;28;20713;-81
2024/01/07 11:57:06;;;;;;;6.73;4.00;;;-1.10;99.90;;;;;;5125452;27;20308;-80
2024/01/07 11:59:33;;;;;;;6.37;3.10;;;-1.10;99.90;;;;;;5088956;28;20308;-80
2024/01/07 12:02:01;;;;;;;4.70;3.00;;;-1.10;99.90;;;;;;5074694;28;20219;-81
2024/01/07 12:04:28;;;;;;;5.10;3.43;;;-1.20;99.90;;;;;;5110849;27;20230;-81
2024/01/07 12:06:55;;;;;;;5.30;3.30;;;-1.20;99.90;;;;;;5115471;27;20234;-82
2024/01/07 12:09:22;;;;;;;3.90;3.30;;;-1.30;99.90;;;;;;5086131;27;20261;-80
2024/01/07 12:11:49;;;;;;;5.43;3.13;;;-1.30;99.90;;;;;;5074918;28;20737;-82
2024/01/07 12:14:17;;;;;;;7.70;5.10;;;-1.40;99.90;;;;;;5124833;27;20308;-81
2024/01/07 12:16:44;;;;;;;6.37;4.60;;;-1.40;99.90;;;;;;5080684;28;20234;-82
2024/01/07 12:19:11;;;;;;;5.83;3.83;;;-1.50;99.90;;;;;;5078599;28;20222;-81
2024/01/07 12:21:40;;;;;;;4.30;3.33;;;-1.50;99.90;;;;;;5084163;28;20300;-81
2024/01/07 12:24:07;;;;;;;4.33;3.30;;;-1.60;99.90;;;;;;5092662;27;20223;-81
2024/01/07 12:26:34;;;;;;;3.87;2.60;;;-1.60;99.90;;;;;;5085975;28;20875;-82
2024/01/07 12:29:03;;;;;;;4.03;3.10;;;-1.60;99.90;;;;;;5086792;28;20697;-80
2024/01/07 12:31:32;;;;;;;5.83;3.10;;;-1.60;99.90;;;;;;5101119;28;20508;-81
2024/01/07 12:33:59;;;;;;;4.27;2.50;;;-1.60;99.90;;;;;;5084362;28;20754;-81
2024/01/07 12:36:26;;;;;;;3.20;2.07;;;-1.60;99.90;;;;;;5120583;27;20244;-81
2024/01/07 12:38:54;;;;;;;4.17;2.50;;;-1.70;99.90;;;;;;5081814;28;20249;-80
2024/01/07 12:41:21;;;;;;;4.37;2.70;;;-1.70;99.90;;;;;;5078249;28;20237;-81
2024/01/07 12:43:48;;;;;;;4.40;2.37;;;-1.70;99.90;;;;;;5086955;27;20223;-80
2024/01/07 12:46:15;;;;;;;4.10;2.23;;;-1.70;99.90;;;;;;5085569;28;20229;-83